createdAt,value
2018-11-14T00:00:14.579Z,14.67
2018-11-14T00:02:42.643Z,15.47
2018-11-14T00:05:10.730Z,17.07
2018-11-14T00:07:38.774Z,16.73
2018-11-14T00:10:07.246Z,14.80
2018-11-14T00:12:35.740Z,12.03
2018-11-14T00:15:04.416Z,15.23
2018-11-14T00:17:32.534Z,15.97
2018-11-14T00:20:00.577Z,14.87
2018-11-14T00:22:28.586Z,12.77
2018-11-14T00:24:56.674Z,14.90
2018-11-14T00:27:24.915Z,12.90
2018-11-14T00:29:53.001Z,13.70
2018-11-14T00:32:21.091Z,14.17
2018-11-14T00:34:49.145Z,15.50
2018-11-14T00:37:17.275Z,16.43
2018-11-14T00:39:45.320Z,14.60
2018-11-14T00:42:13.474Z,17.47
2018-11-14T00:44:41.541Z,16.33
2018-11-14T00:47:09.605Z,16.50
2018-11-14T00:49:37.666Z,16.30
2018-11-14T00:52:05.967Z,13.40
2018-11-14T00:54:34.093Z,17.90
2018-11-14T00:57:02.223Z,23.20
2018-11-14T00:59:30.270Z,20.10
2018-11-14T01:01:58.374Z,21.20
2018-11-14T01:04:26.467Z,19.43
2018-11-14T01:06:54.497Z,16.10
2018-11-14T01:09:22.663Z,12.50
2018-11-14T01:11:50.710Z,19.90
2018-11-14T01:14:18.766Z,16.30
2018-11-14T01:16:46.830Z,15.60
2018-11-14T01:19:14.875Z,18.20
2018-11-14T01:21:42.980Z,15.10
2018-11-14T01:24:10.980Z,12.87
2018-11-14T01:26:39.154Z,15.63
2018-11-14T01:29:07.308Z,11.90
2018-11-14T01:31:35.333Z,11.73
2018-11-14T01:34:03.482Z,11.17
2018-11-14T01:36:31.643Z,14.20
2018-11-14T01:38:59.703Z,15.30
2018-11-14T01:41:27.773Z,19.17
2018-11-14T01:43:55.862Z,15.13
2018-11-14T01:46:23.926Z,13.60
2018-11-14T01:48:52.121Z,11.43
2018-11-14T01:51:20.206Z,16.43
2018-11-14T01:53:48.355Z,15.27
2018-11-14T01:56:16.424Z,13.93
2018-11-14T01:58:44.506Z,16.43
2018-11-14T02:01:12.504Z,12.33
2018-11-14T02:03:40.789Z,19.10
2018-11-14T02:06:09.001Z,14.90
2018-11-14T02:08:37.025Z,16.20
2018-11-14T02:11:05.094Z,16.97
2018-11-14T02:13:33.158Z,13.40
2018-11-14T02:16:01.235Z,15.97
2018-11-14T02:18:29.280Z,18.03
2018-11-14T02:20:57.336Z,13.37
2018-11-14T02:23:25.446Z,14.63
2018-11-14T02:25:53.512Z,18.77
2018-11-14T02:28:21.582Z,18.83
2018-11-14T02:30:49.650Z,18.10
2018-11-14T02:33:17.659Z,32.00
2018-11-14T02:35:45.700Z,21.60
2018-11-14T02:38:13.763Z,15.77
2018-11-14T02:40:42.050Z,17.30
2018-11-14T02:43:10.081Z,18.93
2018-11-14T02:45:38.121Z,18.67
2018-11-14T02:48:06.305Z,12.43
2018-11-14T02:50:34.317Z,16.90
2018-11-14T02:53:02.415Z,11.57
2018-11-14T02:55:30.473Z,13.00
2018-11-14T02:57:58.519Z,16.67
2018-11-14T03:00:26.582Z,16.70
2018-11-14T03:02:54.600Z,17.70
2018-11-14T03:05:22.673Z,26.60
2018-11-14T03:07:50.729Z,22.77
2018-11-14T03:10:18.760Z,24.13
2018-11-14T03:12:47.197Z,24.17
2018-11-14T03:15:16.187Z,21.93
2018-11-14T03:17:44.363Z,16.43
2018-11-14T03:20:12.547Z,23.90
2018-11-14T03:22:40.592Z,22.70
2018-11-14T03:25:08.886Z,21.13
2018-11-14T03:27:37.004Z,25.43
2018-11-14T03:30:08.810Z,20.77
2018-11-14T03:32:36.903Z,24.67
2018-11-14T03:35:06.051Z,29.57
2018-11-14T03:37:34.122Z,26.17
2018-11-14T03:40:02.333Z,28.03
2018-11-14T03:42:30.459Z,28.67
2018-11-14T03:44:58.478Z,28.57
2018-11-14T03:47:26.528Z,25.40
2018-11-14T03:49:54.598Z,26.93
2018-11-14T03:52:22.642Z,27.70
2018-11-14T03:54:50.721Z,26.90
2018-11-14T03:57:18.794Z,32.20
2018-11-14T03:59:46.841Z,24.37
2018-11-14T04:02:14.879Z,23.20
2018-11-14T04:04:42.928Z,25.00
2018-11-14T04:07:11.012Z,19.73
2018-11-14T04:09:39.061Z,27.67
2018-11-14T04:12:07.116Z,26.17
2018-11-14T04:14:35.141Z,23.47
2018-11-14T04:17:03.218Z,19.43
2018-11-14T04:19:31.261Z,28.20
2018-11-14T04:21:59.299Z,21.80
2018-11-14T04:24:27.357Z,21.87
2018-11-14T04:26:55.432Z,21.37
2018-11-14T04:29:23.486Z,23.83
2018-11-14T04:31:51.579Z,22.60
2018-11-14T04:34:19.594Z,16.63
2018-11-14T04:36:47.711Z,22.53
2018-11-14T04:39:15.805Z,20.83
2018-11-14T04:41:43.975Z,25.27
2018-11-14T04:44:12.054Z,21.60
2018-11-14T04:46:40.054Z,22.13
2018-11-14T04:49:08.134Z,22.47
2018-11-14T04:51:36.185Z,23.07
2018-11-14T04:54:04.357Z,21.23
2018-11-14T04:56:32.527Z,22.33
2018-11-14T04:59:00.569Z,21.57
2018-11-14T05:01:28.645Z,22.10
2018-11-14T05:03:56.772Z,18.97
2018-11-14T05:06:24.934Z,23.57
2018-11-14T05:08:53.013Z,24.47
2018-11-14T05:11:21.068Z,23.27
2018-11-14T05:13:49.123Z,27.43
2018-11-14T05:16:17.171Z,22.77
2018-11-14T05:18:45.225Z,21.37
2018-11-14T05:21:13.473Z,23.07
2018-11-14T05:23:41.642Z,21.40
2018-11-14T05:26:09.722Z,20.17
2018-11-14T05:28:37.802Z,27.80
2018-11-14T05:31:05.862Z,31.40
2018-11-14T05:33:33.955Z,24.87
2018-11-14T05:36:01.985Z,27.17
2018-11-14T05:38:30.136Z,26.47
2018-11-14T05:40:58.241Z,27.27
2018-11-14T05:43:26.322Z,22.83
2018-11-14T05:45:54.407Z,30.43
2018-11-14T05:48:22.549Z,24.93
2018-11-14T05:50:50.605Z,25.40
2018-11-14T05:53:18.819Z,28.10
2018-11-14T05:55:46.931Z,25.23
2018-11-14T05:58:14.945Z,29.27
2018-11-14T06:00:43.202Z,28.30
2018-11-14T06:03:11.265Z,30.30
2018-11-14T06:05:39.351Z,23.67
2018-11-14T06:08:07.406Z,23.40
2018-11-14T06:10:35.454Z,28.53
2018-11-14T06:13:03.625Z,26.10
2018-11-14T06:15:31.802Z,25.03
2018-11-14T06:18:00.039Z,24.53
2018-11-14T06:20:28.058Z,24.20
2018-11-14T06:22:56.262Z,25.40
2018-11-14T06:25:25.459Z,26.20
2018-11-14T06:27:53.542Z,25.77
2018-11-14T06:30:21.699Z,18.77
2018-11-14T06:32:49.806Z,19.10
2018-11-14T06:35:18.004Z,21.77
2018-11-14T06:37:46.190Z,21.33
2018-11-14T06:40:14.229Z,28.27
2018-11-14T06:42:42.541Z,21.93
2018-11-14T06:45:11.254Z,23.73
2018-11-14T06:47:39.326Z,24.87
2018-11-14T06:50:08.391Z,26.20
2018-11-14T06:52:36.418Z,20.63
2018-11-14T06:55:05.939Z,17.73
2018-11-14T06:57:34.099Z,23.03
2018-11-14T07:00:02.285Z,23.93
2018-11-14T07:02:30.300Z,18.97
2018-11-14T07:04:58.430Z,23.07
2018-11-14T07:07:26.448Z,20.77
2018-11-14T07:09:54.649Z,20.70
2018-11-14T07:12:22.725Z,22.17
2018-11-14T07:14:50.742Z,23.83
2018-11-14T07:17:18.840Z,22.43
2018-11-14T07:19:46.895Z,21.53
2018-11-14T07:22:14.999Z,20.87
2018-11-14T07:24:43.194Z,24.47
2018-11-14T07:27:11.381Z,20.93
2018-11-14T07:29:39.468Z,24.87
2018-11-14T07:32:07.602Z,21.70
2018-11-14T07:34:35.779Z,21.27
2018-11-14T07:37:03.952Z,21.63
2018-11-14T07:39:31.991Z,22.23
2018-11-14T07:42:00.063Z,23.20
2018-11-14T07:44:28.110Z,18.37
2018-11-14T07:46:56.259Z,20.73
2018-11-14T07:49:24.298Z,18.50
2018-11-14T07:51:52.455Z,24.40
2018-11-14T07:54:20.701Z,31.40
2018-11-14T07:56:48.731Z,21.77
2018-11-14T07:59:16.800Z,23.37
2018-11-14T08:01:44.877Z,19.50
2018-11-14T08:04:12.913Z,20.90
2018-11-14T08:06:41.215Z,18.97
2018-11-14T08:09:09.365Z,20.37
2018-11-14T08:11:37.465Z,22.07
2018-11-14T08:14:05.490Z,15.93
2018-11-14T08:16:33.544Z,19.03
2018-11-14T08:19:01.682Z,17.93
2018-11-14T08:21:29.830Z,21.13
2018-11-14T08:23:57.898Z,21.77
2018-11-14T08:26:25.956Z,20.50
2018-11-14T08:28:54.050Z,21.30
2018-11-14T08:31:22.065Z,18.10
2018-11-14T08:33:50.237Z,18.73
2018-11-14T08:36:23.588Z,19.10
2018-11-14T08:38:51.643Z,22.77
2018-11-14T08:41:19.740Z,17.63
2018-11-14T08:43:47.822Z,20.83
2018-11-14T08:46:15.881Z,18.23
2018-11-14T08:48:43.988Z,17.70
2018-11-14T08:51:12.131Z,16.40
2018-11-14T08:53:40.819Z,17.93
2018-11-14T08:56:08.871Z,14.03
2018-11-14T08:58:37.906Z,17.17
2018-11-14T09:01:06.051Z,14.07
2018-11-14T09:03:34.161Z,17.93
2018-11-14T09:06:02.634Z,13.20
2018-11-14T09:08:30.648Z,14.50
2018-11-14T09:10:58.723Z,16.67
2018-11-14T09:13:26.780Z,16.37
2018-11-14T09:15:54.828Z,21.50
2018-11-14T09:18:22.913Z,18.07
2018-11-14T09:20:50.994Z,17.47
2018-11-14T09:23:19.038Z,15.57
2018-11-14T09:25:47.097Z,13.97
2018-11-14T09:28:15.169Z,14.67
2018-11-14T09:30:43.294Z,15.97
2018-11-14T09:33:11.406Z,12.97
2018-11-14T09:35:39.418Z,12.57
2018-11-14T09:38:07.460Z,15.30
2018-11-14T09:40:35.569Z,14.77
2018-11-14T09:43:03.684Z,13.27
2018-11-14T09:45:31.727Z,13.47
2018-11-14T09:47:59.803Z,13.03
2018-11-14T09:50:27.909Z,15.00
2018-11-14T09:52:56.044Z,13.47
2018-11-14T09:55:24.026Z,12.07
2018-11-14T09:57:52.149Z,19.07
2018-11-14T10:00:20.293Z,13.97
2018-11-14T10:02:49.963Z,10.47
2018-11-14T10:05:18.006Z,13.93
2018-11-14T10:07:46.070Z,15.07
2018-11-14T10:10:14.136Z,12.27
2018-11-14T10:12:42.261Z,11.07
2018-11-14T10:15:11.299Z,13.13
2018-11-14T10:17:39.397Z,14.33
2018-11-14T10:20:08.311Z,13.33
2018-11-14T10:22:36.390Z,14.37
2018-11-14T10:25:04.803Z,14.90
2018-11-14T10:27:32.897Z,14.23
2018-11-14T10:30:00.939Z,8.70
2018-11-14T10:32:28.983Z,14.23
2018-11-14T10:34:57.133Z,11.37
2018-11-14T10:37:25.198Z,15.17
2018-11-14T10:39:53.242Z,14.97
2018-11-14T10:42:23.927Z,13.27
2018-11-14T10:44:51.991Z,10.63
2018-11-14T10:47:20.102Z,12.30
2018-11-14T10:49:48.204Z,11.37
2018-11-14T10:52:16.232Z,14.47
2018-11-14T10:54:46.357Z,11.27
2018-11-14T10:57:14.470Z,13.87
2018-11-14T10:59:42.522Z,12.57
2018-11-14T11:02:10.606Z,15.37
2018-11-14T11:04:38.743Z,12.83
2018-11-14T11:07:06.878Z,11.07
2018-11-14T11:09:34.990Z,17.73
2018-11-14T11:12:03.057Z,11.33
2018-11-14T11:14:31.150Z,12.67
2018-11-14T11:16:59.244Z,13.13
2018-11-14T11:19:27.317Z,13.10
2018-11-14T11:21:55.479Z,17.47
2018-11-14T11:24:23.317Z,15.27
2018-11-14T11:26:51.427Z,16.97
2018-11-14T11:29:19.502Z,16.67
2018-11-14T11:31:47.654Z,19.37
2018-11-14T11:34:15.711Z,15.43
2018-11-14T11:36:43.761Z,16.13
2018-11-14T11:39:12.844Z,19.33
2018-11-14T11:41:41.102Z,21.00
2018-11-14T11:44:09.197Z,19.90
2018-11-14T11:46:37.257Z,21.80
2018-11-14T11:49:05.319Z,21.87
2018-11-14T11:51:33.459Z,22.27
2018-11-14T11:54:01.518Z,17.77
2018-11-14T11:56:29.615Z,20.50
2018-11-14T11:58:57.724Z,22.17
2018-11-14T12:01:25.898Z,22.13
2018-11-14T12:03:53.971Z,21.93
2018-11-14T12:06:22.086Z,23.10
2018-11-14T12:08:50.206Z,26.07
2018-11-14T12:11:18.323Z,22.30
2018-11-14T12:13:46.427Z,25.33
2018-11-14T12:16:14.443Z,22.93
2018-11-14T12:18:42.522Z,28.60
2018-11-14T12:21:10.606Z,26.83
2018-11-14T12:23:38.848Z,24.03
2018-11-14T12:26:06.850Z,21.67
2018-11-14T12:28:35.025Z,22.77
2018-11-14T12:31:03.235Z,22.90
2018-11-14T12:33:31.208Z,29.53
2018-11-14T12:36:06.138Z,23.17
2018-11-14T12:38:34.258Z,27.50
2018-11-14T12:41:02.270Z,26.10
2018-11-14T12:43:30.434Z,24.27
2018-11-14T12:45:58.486Z,23.13
2018-11-14T12:48:26.557Z,24.60
2018-11-14T12:50:56.062Z,21.20
2018-11-14T12:53:24.476Z,20.60
2018-11-14T12:55:52.843Z,22.27
2018-11-14T12:58:22.302Z,20.30
2018-11-14T13:00:50.540Z,18.87
2018-11-14T13:03:20.186Z,18.60
2018-11-14T13:05:48.358Z,20.73
2018-11-14T13:08:16.565Z,21.95
2018-11-14T13:10:44.750Z,20.43
2018-11-14T13:13:12.922Z,23.37
2018-11-14T13:15:41.179Z,19.83
2018-11-14T13:18:09.489Z,23.20
2018-11-14T13:20:37.705Z,23.10
2018-11-14T13:23:05.837Z,19.57
2018-11-14T13:25:33.969Z,21.33
2018-11-14T13:28:02.098Z,14.20
2018-11-14T13:30:30.289Z,16.77
2018-11-14T13:32:58.348Z,17.32
2018-11-14T13:35:26.550Z,15.60
2018-11-14T13:37:54.871Z,16.55
2018-11-14T13:40:22.885Z,17.20
2018-11-14T13:42:51.175Z,16.83
2018-11-14T13:45:19.212Z,20.00
2018-11-14T13:47:47.351Z,18.90
2018-11-14T13:50:17.102Z,18.63
2018-11-14T13:52:45.804Z,19.80
2018-11-14T13:55:13.943Z,19.33
2018-11-14T13:57:42.167Z,20.90
2018-11-14T14:00:10.630Z,18.93
2018-11-14T14:02:38.857Z,19.53
2018-11-14T14:05:08.244Z,18.20
2018-11-14T14:07:36.331Z,21.17
2018-11-14T14:10:06.770Z,15.90
2018-11-14T14:12:35.099Z,18.02
2018-11-14T14:15:04.653Z,16.47
2018-11-14T14:17:32.795Z,17.13
2018-11-14T14:20:00.865Z,12.73
2018-11-14T14:22:28.997Z,14.50
2018-11-14T14:24:57.114Z,15.53
2018-11-14T14:27:25.251Z,11.87
2018-11-14T14:29:53.345Z,15.13
2018-11-14T14:32:21.473Z,13.00
2018-11-14T14:34:49.532Z,18.23
2018-11-14T14:37:17.663Z,14.53
2018-11-14T14:39:45.839Z,13.33
2018-11-14T14:42:13.874Z,13.83
2018-11-14T14:44:42.004Z,14.53
2018-11-14T14:47:10.133Z,14.67
2018-11-14T14:49:38.234Z,15.20
2018-11-14T14:52:06.432Z,11.83
2018-11-14T14:54:34.669Z,15.47
2018-11-14T14:57:04.022Z,13.67
2018-11-14T14:59:32.180Z,11.70
2018-11-14T15:02:00.350Z,14.03
2018-11-14T15:04:28.482Z,11.17
2018-11-14T15:06:56.657Z,16.33
2018-11-14T15:09:24.804Z,10.23
2018-11-14T15:11:52.892Z,14.68
2018-11-14T15:14:22.220Z,11.90
2018-11-14T15:16:50.479Z,17.00
2018-11-14T15:19:18.566Z,7.67
2018-11-14T15:21:46.663Z,12.30
2018-11-14T15:24:14.722Z,10.63
2018-11-14T15:26:42.795Z,10.27
2018-11-14T15:29:10.934Z,10.70
2018-11-14T15:31:39.003Z,10.17
2018-11-14T15:34:07.156Z,11.37
2018-11-14T15:36:35.299Z,15.43
2018-11-14T15:39:04.759Z,9.57
2018-11-14T15:41:32.806Z,10.00
2018-11-14T15:44:00.889Z,9.40
2018-11-14T15:46:29.273Z,9.03
2018-11-14T15:48:57.433Z,8.07
2018-11-14T15:51:25.543Z,11.63
2018-11-14T15:53:53.636Z,15.47
2018-11-14T15:56:21.718Z,14.23
2018-11-14T15:58:49.892Z,10.43
2018-11-14T16:01:18.070Z,11.13
2018-11-14T16:03:46.150Z,15.40
2018-11-14T16:06:14.334Z,10.93
2018-11-14T16:08:42.500Z,12.37
2018-11-14T16:11:10.708Z,9.87
2018-11-14T16:13:39.015Z,12.37
2018-11-14T16:16:07.201Z,10.87
2018-11-14T16:18:35.296Z,8.80
2018-11-14T16:21:03.430Z,9.30
2018-11-14T16:23:32.115Z,13.13
2018-11-14T16:26:00.230Z,7.90
2018-11-14T16:28:28.402Z,9.93
2018-11-14T16:30:56.811Z,11.93
2018-11-14T16:33:24.916Z,10.13
2018-11-14T16:35:53.011Z,14.47
2018-11-14T16:38:21.472Z,14.97
2018-11-14T16:40:49.521Z,9.80
2018-11-14T16:43:17.871Z,7.40
2018-11-14T16:45:46.075Z,10.83
2018-11-14T16:48:14.215Z,11.80
2018-11-14T16:50:42.385Z,10.32
2018-11-14T16:53:10.659Z,9.33
2018-11-14T16:55:38.797Z,8.00
2018-11-14T16:58:07.000Z,10.40
2018-11-14T17:00:35.229Z,14.33
2018-11-14T17:03:03.811Z,9.63
2018-11-14T17:05:32.194Z,9.43
2018-11-14T17:08:00.365Z,10.97
2018-11-14T17:10:28.562Z,8.47
2018-11-14T17:12:56.718Z,12.80
2018-11-14T17:15:24.827Z,9.43
2018-11-14T17:17:53.130Z,13.50
2018-11-14T17:20:21.277Z,11.10
2018-11-14T17:22:49.392Z,13.03
2018-11-14T17:25:17.494Z,11.77
2018-11-14T17:27:45.700Z,8.43
2018-11-14T17:30:14.256Z,10.53
2018-11-14T17:32:42.554Z,9.50
2018-11-14T17:35:10.713Z,10.63
2018-11-14T17:37:38.886Z,11.33
2018-11-14T17:40:13.480Z,10.40
2018-11-14T17:42:41.732Z,6.90
2018-11-14T17:45:11.759Z,12.17
2018-11-14T17:47:39.918Z,12.60
2018-11-14T17:50:12.843Z,8.33
2018-11-14T17:52:41.015Z,15.73
2018-11-14T17:55:09.578Z,11.00
2018-11-14T17:57:37.747Z,11.87
2018-11-14T18:00:06.999Z,14.17
2018-11-14T18:02:35.089Z,14.40
2018-11-14T18:05:03.385Z,10.97
2018-11-14T18:07:31.529Z,13.77
2018-11-14T18:09:59.600Z,13.23
2018-11-14T18:12:27.710Z,12.57
2018-11-14T18:14:55.829Z,9.63
2018-11-14T18:17:24.016Z,11.93
2018-11-14T18:19:52.119Z,10.03
2018-11-14T18:22:20.213Z,15.03
2018-11-14T18:24:48.473Z,11.60
2018-11-14T18:27:16.543Z,12.50
2018-11-14T18:29:44.599Z,12.93
2018-11-14T18:32:12.864Z,10.27
2018-11-14T18:34:41.098Z,13.10
2018-11-14T18:37:09.157Z,14.03
2018-11-14T18:39:37.313Z,12.93
2018-11-14T18:42:05.477Z,14.33
2018-11-14T18:44:33.574Z,13.97
2018-11-14T18:47:01.683Z,15.37
2018-11-14T18:49:29.789Z,20.93
2018-11-14T18:51:57.856Z,14.73
2018-11-14T18:54:26.129Z,20.93
2018-11-14T18:56:54.251Z,17.97
2018-11-14T18:59:22.542Z,20.53
2018-11-14T19:01:51.100Z,16.63
2018-11-14T19:04:19.229Z,14.47
2018-11-14T19:06:47.467Z,13.00
2018-11-14T19:09:15.596Z,14.07
2018-11-14T19:11:43.709Z,12.67
2018-11-14T19:14:11.840Z,16.43
2018-11-14T19:16:40.133Z,15.30
2018-11-14T19:19:08.407Z,14.77
2018-11-14T19:21:36.456Z,16.87
2018-11-14T19:24:04.940Z,16.03
2018-11-14T19:26:33.322Z,16.90
2018-11-14T19:29:01.705Z,13.23
2018-11-14T19:31:29.810Z,15.33
2018-11-14T19:33:57.930Z,14.63
2018-11-14T19:36:26.038Z,16.80
2018-11-14T19:38:54.179Z,14.40
2018-11-14T19:41:22.431Z,16.17
2018-11-14T19:43:50.602Z,13.77
2018-11-14T19:46:18.721Z,15.27
2018-11-14T19:48:46.880Z,17.23
2018-11-14T19:51:17.433Z,16.17
2018-11-14T19:53:45.587Z,14.37
2018-11-14T19:56:14.231Z,16.60
2018-11-14T19:58:42.530Z,16.50
2018-11-14T20:01:15.813Z,13.87
2018-11-14T20:03:43.955Z,16.63
2018-11-14T20:06:12.134Z,16.03
2018-11-14T20:08:41.256Z,17.27
2018-11-14T20:11:09.439Z,15.03
2018-11-14T20:13:37.560Z,15.57
2018-11-14T20:29:05.065Z,15.17
2018-11-14T20:31:33.256Z,15.80
2018-11-14T20:34:01.357Z,16.27
2018-11-14T20:36:29.680Z,18.27
2018-11-14T20:38:57.979Z,19.17
2018-11-14T20:41:26.123Z,16.67
2018-11-14T20:43:54.434Z,21.10
2018-11-14T20:46:26.047Z,16.13
2018-11-14T20:48:54.519Z,22.63
2018-11-14T20:51:22.921Z,20.33
2018-11-14T20:53:51.070Z,20.43
2018-11-14T20:56:19.156Z,18.53
2018-11-14T20:58:47.601Z,20.17
2018-11-14T21:01:15.926Z,18.30
2018-11-14T21:03:44.364Z,18.73
2018-11-14T21:06:12.514Z,18.60
2018-11-14T21:08:40.618Z,16.77
2018-11-14T21:11:08.875Z,19.83
2018-11-14T21:13:37.104Z,19.63
2018-11-14T21:16:07.172Z,17.10
2018-11-14T21:18:35.309Z,23.07
2018-11-14T21:21:03.382Z,21.37
2018-11-14T21:23:32.821Z,22.83
2018-11-14T21:26:01.339Z,25.53
2018-11-14T21:28:29.561Z,23.47
2018-11-14T21:30:57.650Z,28.40
2018-11-14T21:33:26.144Z,28.10
2018-11-14T21:35:54.918Z,22.63
2018-11-14T21:38:23.043Z,24.50
2018-11-14T21:40:51.523Z,28.00
2018-11-14T21:43:19.673Z,28.73
2018-11-14T21:45:47.937Z,24.93
2018-11-14T21:48:16.369Z,26.63
2018-11-14T21:50:44.559Z,25.17
2018-11-14T21:53:12.824Z,24.40
2018-11-14T21:55:41.119Z,24.37
2018-11-14T21:58:09.258Z,25.03
2018-11-14T22:00:37.441Z,25.33
2018-11-14T22:03:07.495Z,25.10
2018-11-14T22:05:35.732Z,27.83
2018-11-14T22:08:03.867Z,27.63
2018-11-14T22:10:31.943Z,32.23
2018-11-14T22:12:59.997Z,28.70
2018-11-14T22:15:28.085Z,32.37
2018-11-14T22:17:56.305Z,31.00
2018-11-14T22:20:24.433Z,32.17
2018-11-14T22:22:52.523Z,31.17
2018-11-14T22:25:20.764Z,36.87
2018-11-14T22:27:48.882Z,34.27
2018-11-14T22:30:18.416Z,37.23
2018-11-14T22:32:46.515Z,38.47
2018-11-14T22:35:14.641Z,36.07
2018-11-14T22:37:43.015Z,34.17
2018-11-14T22:40:12.083Z,41.33
2018-11-14T22:42:40.302Z,36.80
2018-11-14T22:45:09.942Z,37.40
2018-11-14T22:47:38.064Z,39.97
2018-11-14T22:50:07.629Z,40.67
2018-11-14T22:52:36.220Z,41.47
2018-11-14T22:55:05.317Z,39.30
2018-11-14T22:57:33.370Z,42.53
2018-11-14T23:00:01.434Z,41.40
2018-11-14T23:02:29.463Z,39.57
2018-11-14T23:04:57.500Z,40.50
2018-11-14T23:07:25.602Z,46.47
2018-11-14T23:09:53.701Z,48.43
2018-11-14T23:12:21.801Z,47.97
2018-11-14T23:14:49.885Z,45.37
2018-11-14T23:17:17.933Z,44.97
2018-11-14T23:19:45.961Z,45.80
2018-11-14T23:22:14.221Z,45.40
2018-11-14T23:24:42.463Z,45.33
2018-11-14T23:27:10.616Z,45.10
2018-11-14T23:29:38.815Z,48.03
2018-11-14T23:32:07.042Z,45.37
2018-11-14T23:34:35.122Z,47.47
2018-11-14T23:37:03.289Z,49.80
2018-11-14T23:39:31.480Z,52.13
2018-11-14T23:41:59.558Z,52.50
2018-11-14T23:44:27.634Z,45.07
2018-11-14T23:46:55.735Z,57.57
2018-11-14T23:49:23.997Z,56.30
2018-11-14T23:51:52.076Z,52.23
2018-11-14T23:54:20.161Z,58.10
2018-11-14T23:56:48.386Z,54.60
2018-11-14T23:59:16.494Z,48.70
